Lena — V2FR — position and weather

sailwx.info

Track history (hours):
 
Tides and Currents Weather Stations Pressure Air Temp Water Temp Dewpoint Dewpoint Depression Visibility Wind Speed Wind Dir Waves Ship Positions

Lena

Last reported at 2016-Jul-23 10:29 UTC. Time now 2016-Jul-24 10:46 UTC.
Position N 18°45' W 118°44'.

Length 152 m; draft 7.2 m.

Type: Ship. MMSI: 304080808.

Date/timePositionNaut miles runAvg speedWind from/ knotsBaromVisibWave heightAir tempDewpointWater temp
2016-Jul-23 10:29N 18°45' W 118°44'11015.8
2016-Jul-23 03:33N 19°58' W 120°11'1615.5
2016-Jul-23 02:31N 20°07' W 120°25'9716.2
2016-Jul-22 20:33N 21°14' W 121°39'2217.3
2016-Jul-22 19:17N 21°29' W 121°56'5613.8
2016-Jul-22 15:14N 22°13' W 122°34'3016.4
2016-Jul-22 13:24N 22°40' W 122°48'1516.4
2016-Jul-22 12:29N 22°54' W 122°55'1516.1
2016-Jul-22 11:33N 23°07' W 123°02'1615.9
2016-Jul-22 10:33N 23°21' W 123°10'1615.8
2016-Jul-22 09:33N 23°35' W 123°18'1615.8
2016-Jul-22 08:33N 23°50' W 123°25'1615.7
2016-Jul-22 07:34N 24°04' W 123°32'3115.5
2016-Jul-22 05:33N 24°32' W 123°47'1615.4
2016-Jul-22 04:31N 24°46' W 123°55'1515.4
2016-Jul-22 03:33N 24°59' W 124°02'3115.5
2016-Jul-22 01:33N 25°27' W 124°17'1615.4
2016-Jul-22 00:30N 25°42' W 124°25'1515.6
2016-Jul-21 23:33N 25°55' W 124°32'1615.6
2016-Jul-21 22:33N 26°09' W 124°40'1414.2
2016-Jul-21 21:33N 26°19' W 124°51'1515.0
2016-Jul-21 20:31N 26°25' W 125°07'1515.0
2016-Jul-21 19:33N 26°29' W 125°23'1615.1
2016-Jul-21 18:31N 26°35' W 125°39'1515.2
2016-Jul-21 17:33N 26°40' W 125°54'  
Track history (hours):
 
Tides and Currents Weather Stations Pressure Air Temp Water Temp Dewpoint Dewpoint Depression Visibility Wind Speed Wind Dir Waves Ship Positions

Lena

Last reported at 2016-Jul-23 10:29 UTC. Time now 2016-Jul-24 10:46 UTC.
Position N 18°45' W 118°44'.

Length 152 m; draft 7.2 m.

Type: Ship. MMSI: 304080808.

Date/timePositionNaut miles runAvg speedWind from/ knotsBaromVisibWave heightAir tempDewpointWater temp
2016-Jul-23 10:29N 18°45' W 118°44'11015.8
2016-Jul-23 03:33N 19°58' W 120°11'1615.5
2016-Jul-23 02:31N 20°07' W 120°25'9716.2
2016-Jul-22 20:33N 21°14' W 121°39'2217.3
2016-Jul-22 19:17N 21°29' W 121°56'5613.8
2016-Jul-22 15:14N 22°13' W 122°34'3016.4
2016-Jul-22 13:24N 22°40' W 122°48'1516.4
2016-Jul-22 12:29N 22°54' W 122°55'1516.1
2016-Jul-22 11:33N 23°07' W 123°02'1615.9
2016-Jul-22 10:33N 23°21' W 123°10'1615.8
2016-Jul-22 09:33N 23°35' W 123°18'1615.8
2016-Jul-22 08:33N 23°50' W 123°25'1615.7
2016-Jul-22 07:34N 24°04' W 123°32'3115.5
2016-Jul-22 05:33N 24°32' W 123°47'1615.4
2016-Jul-22 04:31N 24°46' W 123°55'1515.4
2016-Jul-22 03:33N 24°59' W 124°02'3115.5
2016-Jul-22 01:33N 25°27' W 124°17'1615.4
2016-Jul-22 00:30N 25°42' W 124°25'1515.6
2016-Jul-21 23:33N 25°55' W 124°32'1615.6
2016-Jul-21 22:33N 26°09' W 124°40'1414.2
2016-Jul-21 21:33N 26°19' W 124°51'1515.0
2016-Jul-21 20:31N 26°25' W 125°07'1515.0
2016-Jul-21 19:33N 26°29' W 125°23'1615.1
2016-Jul-21 18:31N 26°35' W 125°39'1515.2
2016-Jul-21 17:33N 26°40' W 125°54'  

Dump ship's entire track history